sensor_id;sensor_type;location;lat;lon;timestamp;P1;durP1;ratioP1;P2;durP2;ratioP2
55288;SDS011;41154;45.394;5.734;2023-11-19T00:03:14;28.23;;;15.13;;
55288;SDS011;41154;45.394;5.734;2023-11-19T00:06:39;23.27;;;12.60;;
55288;SDS011;41154;45.394;5.734;2023-11-19T00:10:10;20.65;;;12.05;;
55288;SDS011;41154;45.394;5.734;2023-11-19T00:13:34;24.67;;;12.48;;
55288;SDS011;41154;45.394;5.734;2023-11-19T00:16:59;23.35;;;11.45;;
55288;SDS011;41154;45.394;5.734;2023-11-19T00:20:24;19.40;;;11.88;;
55288;SDS011;41154;45.394;5.734;2023-11-19T00:23:48;20.05;;;11.45;;
55288;SDS011;41154;45.394;5.734;2023-11-19T00:27:12;24.77;;;13.05;;
55288;SDS011;41154;45.394;5.734;2023-11-19T00:30:37;23.88;;;12.35;;
55288;SDS011;41154;45.394;5.734;2023-11-19T00:34:01;26.88;;;12.85;;
55288;SDS011;41154;45.394;5.734;2023-11-19T00:37:26;23.73;;;12.52;;
55288;SDS011;41154;45.394;5.734;2023-11-19T00:40:50;21.92;;;11.00;;
55288;SDS011;41154;45.394;5.734;2023-11-19T00:44:14;22.35;;;12.35;;
55288;SDS011;41154;45.394;5.734;2023-11-19T00:47:39;32.85;;;17.13;;
55288;SDS011;41154;45.394;5.734;2023-11-19T00:51:03;31.90;;;16.63;;
55288;SDS011;41154;45.394;5.734;2023-11-19T00:54:28;32.53;;;15.85;;
55288;SDS011;41154;45.394;5.734;2023-11-19T00:57:53;27.48;;;14.60;;
55288;SDS011;41154;45.394;5.734;2023-11-19T01:01:17;27.40;;;14.55;;
55288;SDS011;41154;45.394;5.734;2023-11-19T01:04:41;27.33;;;13.73;;
55288;SDS011;41154;45.394;5.734;2023-11-19T01:08:06;27.55;;;13.80;;
55288;SDS011;41154;45.394;5.734;2023-11-19T01:11:31;27.20;;;14.35;;
55288;SDS011;41154;45.394;5.734;2023-11-19T01:14:56;27.75;;;13.35;;
55288;SDS011;41154;45.394;5.734;2023-11-19T01:18:22;27.58;;;13.90;;
55288;SDS011;41154;45.394;5.734;2023-11-19T01:21:48;24.08;;;13.23;;
55288;SDS011;41154;45.394;5.734;2023-11-19T01:25:14;30.35;;;13.50;;
55288;SDS011;41154;45.394;5.734;2023-11-19T01:28:38;31.58;;;15.20;;
55288;SDS011;41154;45.394;5.734;2023-11-19T01:32:04;26.92;;;14.77;;
55288;SDS011;41154;45.394;5.734;2023-11-19T01:35:28;23.20;;;12.93;;
55288;SDS011;41154;45.394;5.734;2023-11-19T01:38:52;25.30;;;13.82;;
55288;SDS011;41154;45.394;5.734;2023-11-19T01:42:16;27.75;;;14.38;;
55288;SDS011;41154;45.394;5.734;2023-11-19T01:46:00;28.50;;;13.73;;
55288;SDS011;41154;45.394;5.734;2023-11-19T01:49:24;25.27;;;12.85;;
55288;SDS011;41154;45.394;5.734;2023-11-19T01:52:52;24.38;;;12.98;;
55288;SDS011;41154;45.394;5.734;2023-11-19T01:56:17;26.40;;;13.95;;
55288;SDS011;41154;45.394;5.734;2023-11-19T01:59:42;25.55;;;12.77;;
55288;SDS011;41154;45.394;5.734;2023-11-19T02:03:08;23.60;;;12.40;;
55288;SDS011;41154;45.394;5.734;2023-11-19T02:06:34;20.95;;;12.00;;
55288;SDS011;41154;45.394;5.734;2023-11-19T02:09:58;22.63;;;12.55;;
55288;SDS011;41154;45.394;5.734;2023-11-19T02:13:23;22.20;;;12.27;;
55288;SDS011;41154;45.394;5.734;2023-11-19T02:16:51;28.23;;;12.20;;
55288;SDS011;41154;45.394;5.734;2023-11-19T02:20:16;33.42;;;14.02;;
55288;SDS011;41154;45.394;5.734;2023-11-19T02:23:44;24.17;;;12.70;;
55288;SDS011;41154;45.394;5.734;2023-11-19T02:27:10;28.40;;;14.40;;
55288;SDS011;41154;45.394;5.734;2023-11-19T02:30:37;23.38;;;12.85;;
55288;SDS011;41154;45.394;5.734;2023-11-19T02:33:52;28.55;;;12.57;;
55288;SDS011;41154;45.394;5.734;2023-11-19T02:37:18;24.13;;;11.25;;
55288;SDS011;41154;45.394;5.734;2023-11-19T02:40:41;20.65;;;10.88;;
55288;SDS011;41154;45.394;5.734;2023-11-19T02:44:05;20.75;;;10.25;;
55288;SDS011;41154;45.394;5.734;2023-11-19T02:47:32;18.70;;;10.57;;
55288;SDS011;41154;45.394;5.734;2023-11-19T02:50:56;25.05;;;11.13;;
55288;SDS011;41154;45.394;5.734;2023-11-19T02:54:20;22.90;;;10.95;;
55288;SDS011;41154;45.394;5.734;2023-11-19T02:57:45;20.10;;;10.68;;
55288;SDS011;41154;45.394;5.734;2023-11-19T03:01:10;23.88;;;11.27;;
55288;SDS011;41154;45.394;5.734;2023-11-19T03:04:37;21.77;;;10.75;;
55288;SDS011;41154;45.394;5.734;2023-11-19T03:08:01;18.63;;;10.35;;
55288;SDS011;41154;45.394;5.734;2023-11-19T03:11:31;18.77;;;10.65;;
55288;SDS011;41154;45.394;5.734;2023-11-19T03:14:55;20.98;;;10.40;;
55288;SDS011;41154;45.394;5.734;2023-11-19T03:18:20;19.88;;;10.82;;
55288;SDS011;41154;45.394;5.734;2023-11-19T03:21:44;21.88;;;10.95;;
55288;SDS011;41154;45.394;5.734;2023-11-19T03:25:09;22.75;;;10.98;;
55288;SDS011;41154;45.394;5.734;2023-11-19T03:28:36;21.48;;;10.93;;
55288;SDS011;41154;45.394;5.734;2023-11-19T03:32:00;19.05;;;10.55;;
55288;SDS011;41154;45.394;5.734;2023-11-19T03:35:28;15.75;;;9.60;;
55288;SDS011;41154;45.394;5.734;2023-11-19T03:38:58;21.60;;;9.50;;
55288;SDS011;41154;45.394;5.734;2023-11-19T03:42:27;18.00;;;8.90;;
55288;SDS011;41154;45.394;5.734;2023-11-19T03:45:52;17.95;;;8.23;;
55288;SDS011;41154;45.394;5.734;2023-11-19T03:49:17;18.60;;;8.38;;
55288;SDS011;41154;45.394;5.734;2023-11-19T03:52:41;17.77;;;9.32;;
55288;SDS011;41154;45.394;5.734;2023-11-19T03:56:06;18.20;;;10.00;;
55288;SDS011;41154;45.394;5.734;2023-11-19T03:59:31;22.95;;;10.60;;
55288;SDS011;41154;45.394;5.734;2023-11-19T04:02:56;24.05;;;12.43;;
55288;SDS011;41154;45.394;5.734;2023-11-19T04:06:21;21.98;;;11.88;;
55288;SDS011;41154;45.394;5.734;2023-11-19T04:09:45;23.63;;;12.20;;
55288;SDS011;41154;45.394;5.734;2023-11-19T04:13:10;23.67;;;11.63;;
55288;SDS011;41154;45.394;5.734;2023-11-19T04:16:32;31.23;;;13.00;;
55288;SDS011;41154;45.394;5.734;2023-11-19T04:19:51;25.23;;;12.55;;
55288;SDS011;41154;45.394;5.734;2023-11-19T04:23:16;29.02;;;12.40;;
55288;SDS011;41154;45.394;5.734;2023-11-19T04:26:43;29.00;;;13.60;;
55288;SDS011;41154;45.394;5.734;2023-11-19T04:30:03;26.58;;;11.30;;
55288;SDS011;41154;45.394;5.734;2023-11-19T04:33:24;25.40;;;11.52;;
55288;SDS011;41154;45.394;5.734;2023-11-19T04:36:47;20.45;;;10.27;;
55288;SDS011;41154;45.394;5.734;2023-11-19T04:40:12;20.27;;;9.77;;
55288;SDS011;41154;45.394;5.734;2023-11-19T04:43:35;26.48;;;11.35;;
55288;SDS011;41154;45.394;5.734;2023-11-19T04:46:59;13.75;;;7.97;;
55288;SDS011;41154;45.394;5.734;2023-11-19T04:50:23;17.75;;;8.80;;
55288;SDS011;41154;45.394;5.734;2023-11-19T04:53:47;20.20;;;9.18;;
55288;SDS011;41154;45.394;5.734;2023-11-19T04:57:11;22.55;;;10.40;;
55288;SDS011;41154;45.394;5.734;2023-11-19T05:00:35;12.65;;;7.38;;
55288;SDS011;41154;45.394;5.734;2023-11-19T05:04:00;16.25;;;8.02;;
55288;SDS011;41154;45.394;5.734;2023-11-19T05:07:24;13.32;;;7.75;;
55288;SDS011;41154;45.394;5.734;2023-11-19T05:10:49;18.55;;;8.30;;
55288;SDS011;41154;45.394;5.734;2023-11-19T05:14:13;16.60;;;9.10;;
55288;SDS011;41154;45.394;5.734;2023-11-19T05:17:38;17.55;;;8.93;;
55288;SDS011;41154;45.394;5.734;2023-11-19T05:21:02;17.85;;;9.55;;
55288;SDS011;41154;45.394;5.734;2023-11-19T05:24:26;23.67;;;11.35;;
55288;SDS011;41154;45.394;5.734;2023-11-19T05:27:50;17.08;;;10.10;;
55288;SDS011;41154;45.394;5.734;2023-11-19T05:31:15;19.20;;;9.38;;
55288;SDS011;41154;45.394;5.734;2023-11-19T05:34:39;17.85;;;9.30;;
55288;SDS011;41154;45.394;5.734;2023-11-19T05:38:04;14.75;;;8.05;;
55288;SDS011;41154;45.394;5.734;2023-11-19T05:41:28;16.40;;;8.73;;
55288;SDS011;41154;45.394;5.734;2023-11-19T05:44:52;15.57;;;8.10;;
55288;SDS011;41154;45.394;5.734;2023-11-19T05:48:17;11.93;;;6.88;;
55288;SDS011;41154;45.394;5.734;2023-11-19T05:51:41;14.25;;;7.32;;
55288;SDS011;41154;45.394;5.734;2023-11-19T05:55:05;12.52;;;6.55;;
55288;SDS011;41154;45.394;5.734;2023-11-19T05:58:30;13.45;;;6.80;;
55288;SDS011;41154;45.394;5.734;2023-11-19T06:01:55;15.80;;;8.50;;
55288;SDS011;41154;45.394;5.734;2023-11-19T06:05:21;16.25;;;8.63;;
55288;SDS011;41154;45.394;5.734;2023-11-19T06:08:45;14.07;;;8.27;;
55288;SDS011;41154;45.394;5.734;2023-11-19T06:12:09;13.35;;;7.57;;
55288;SDS011;41154;45.394;5.734;2023-11-19T06:15:35;15.60;;;8.07;;
55288;SDS011;41154;45.394;5.734;2023-11-19T06:19:02;14.33;;;9.03;;
55288;SDS011;41154;45.394;5.734;2023-11-19T06:22:26;15.60;;;7.90;;
55288;SDS011;41154;45.394;5.734;2023-11-19T06:25:50;12.43;;;8.05;;
55288;SDS011;41154;45.394;5.734;2023-11-19T06:29:14;15.57;;;6.97;;
55288;SDS011;41154;45.394;5.734;2023-11-19T06:32:38;15.85;;;8.15;;
55288;SDS011;41154;45.394;5.734;2023-11-19T06:36:03;16.13;;;7.30;;
55288;SDS011;41154;45.394;5.734;2023-11-19T06:39:29;13.13;;;7.43;;
55288;SDS011;41154;45.394;5.734;2023-11-19T06:42:55;13.95;;;7.15;;
55288;SDS011;41154;45.394;5.734;2023-11-19T06:46:19;19.40;;;8.82;;
55288;SDS011;41154;45.394;5.734;2023-11-19T06:49:43;18.73;;;10.50;;
55288;SDS011;41154;45.394;5.734;2023-11-19T06:53:08;33.17;;;14.82;;
55288;SDS011;41154;45.394;5.734;2023-11-19T06:56:32;18.50;;;10.15;;
55288;SDS011;41154;45.394;5.734;2023-11-19T06:59:57;34.58;;;17.70;;
55288;SDS011;41154;45.394;5.734;2023-11-19T07:03:22;35.38;;;17.70;;
55288;SDS011;41154;45.394;5.734;2023-11-19T07:06:46;31.42;;;17.52;;
55288;SDS011;41154;45.394;5.734;2023-11-19T07:10:12;25.25;;;14.15;;
55288;SDS011;41154;45.394;5.734;2023-11-19T07:13:37;25.50;;;12.50;;
55288;SDS011;41154;45.394;5.734;2023-11-19T07:17:01;28.60;;;14.13;;
55288;SDS011;41154;45.394;5.734;2023-11-19T07:20:26;22.77;;;13.20;;
55288;SDS011;41154;45.394;5.734;2023-11-19T07:23:50;28.08;;;15.15;;
55288;SDS011;41154;45.394;5.734;2023-11-19T07:27:15;34.30;;;17.27;;
55288;SDS011;41154;45.394;5.734;2023-11-19T07:30:39;21.70;;;10.48;;
55288;SDS011;41154;45.394;5.734;2023-11-19T07:34:04;13.00;;;7.18;;
55288;SDS011;41154;45.394;5.734;2023-11-19T07:37:29;17.23;;;8.82;;
55288;SDS011;41154;45.394;5.734;2023-11-19T07:40:53;19.42;;;10.05;;
55288;SDS011;41154;45.394;5.734;2023-11-19T07:44:19;15.32;;;9.05;;
55288;SDS011;41154;45.394;5.734;2023-11-19T07:47:43;21.13;;;10.20;;
55288;SDS011;41154;45.394;5.734;2023-11-19T07:51:08;18.80;;;10.02;;
55288;SDS011;41154;45.394;5.734;2023-11-19T07:54:32;14.93;;;9.27;;
55288;SDS011;41154;45.394;5.734;2023-11-19T07:57:56;19.52;;;12.43;;
55288;SDS011;41154;45.394;5.734;2023-11-19T08:01:21;23.95;;;14.98;;
55288;SDS011;41154;45.394;5.734;2023-11-19T08:04:45;17.17;;;10.52;;
55288;SDS011;41154;45.394;5.734;2023-11-19T08:08:10;20.20;;;10.18;;
55288;SDS011;41154;45.394;5.734;2023-11-19T08:11:39;27.73;;;14.10;;
55288;SDS011;41154;45.394;5.734;2023-11-19T08:15:04;25.25;;;12.27;;
55288;SDS011;41154;45.394;5.734;2023-11-19T08:18:28;19.52;;;10.95;;
55288;SDS011;41154;45.394;5.734;2023-11-19T08:21:53;18.85;;;10.18;;
55288;SDS011;41154;45.394;5.734;2023-11-19T08:25:15;19.27;;;10.90;;
55288;SDS011;41154;45.394;5.734;2023-11-19T08:28:40;18.23;;;10.98;;
55288;SDS011;41154;45.394;5.734;2023-11-19T08:32:05;18.52;;;10.93;;
55288;SDS011;41154;45.394;5.734;2023-11-19T08:35:31;15.10;;;8.25;;
55288;SDS011;41154;45.394;5.734;2023-11-19T08:38:14;12.65;;;8.02;;
55288;SDS011;41154;45.394;5.734;2023-11-19T08:40:40;10.90;;;7.28;;
55288;SDS011;41154;45.394;5.734;2023-11-19T08:43:17;9.05;;;6.35;;
55288;SDS011;41154;45.394;5.734;2023-11-19T08:45:59;9.05;;;4.93;;
55288;SDS011;41154;45.394;5.734;2023-11-19T08:49:23;7.60;;;4.78;;
55288;SDS011;41154;45.394;5.734;2023-11-19T08:52:47;11.27;;;7.13;;
55288;SDS011;41154;45.394;5.734;2023-11-19T08:56:12;12.40;;;6.45;;
55288;SDS011;41154;45.394;5.734;2023-11-19T08:59:36;12.70;;;7.75;;
55288;SDS011;41154;45.394;5.734;2023-11-19T09:03:00;13.93;;;7.72;;
55288;SDS011;41154;45.394;5.734;2023-11-19T09:06:24;12.13;;;8.00;;
55288;SDS011;41154;45.394;5.734;2023-11-19T09:09:39;13.98;;;7.97;;
55288;SDS011;41154;45.394;5.734;2023-11-19T09:12:39;13.20;;;7.07;;
55288;SDS011;41154;45.394;5.734;2023-11-19T09:16:03;11.55;;;6.40;;
55288;SDS011;41154;45.394;5.734;2023-11-19T09:19:27;11.15;;;6.80;;
55288;SDS011;41154;45.394;5.734;2023-11-19T09:22:51;7.65;;;5.18;;
55288;SDS011;41154;45.394;5.734;2023-11-19T09:26:16;10.10;;;5.65;;
55288;SDS011;41154;45.394;5.734;2023-11-19T09:29:41;11.35;;;5.88;;
55288;SDS011;41154;45.394;5.734;2023-11-19T09:33:05;7.25;;;4.53;;
55288;SDS011;41154;45.394;5.734;2023-11-19T09:36:29;6.63;;;3.75;;
55288;SDS011;41154;45.394;5.734;2023-11-19T09:39:54;4.50;;;3.65;;
55288;SDS011;41154;45.394;5.734;2023-11-19T09:43:18;5.82;;;4.07;;
55288;SDS011;41154;45.394;5.734;2023-11-19T09:46:43;7.18;;;4.43;;
55288;SDS011;41154;45.394;5.734;2023-11-19T09:50:10;6.05;;;4.22;;
55288;SDS011;41154;45.394;5.734;2023-11-19T09:53:37;29.77;;;19.95;;
55288;SDS011;41154;45.394;5.734;2023-11-19T09:57:02;8.43;;;4.70;;
55288;SDS011;41154;45.394;5.734;2023-11-19T10:00:27;8.63;;;5.00;;
55288;SDS011;41154;45.394;5.734;2023-11-19T10:03:51;6.25;;;4.40;;
55288;SDS011;41154;45.394;5.734;2023-11-19T10:07:18;11.13;;;6.35;;
55288;SDS011;41154;45.394;5.734;2023-11-19T10:10:42;9.40;;;5.80;;
55288;SDS011;41154;45.394;5.734;2023-11-19T10:14:07;8.63;;;5.88;;
55288;SDS011;41154;45.394;5.734;2023-11-19T10:17:35;10.90;;;7.38;;
55288;SDS011;41154;45.394;5.734;2023-11-19T10:21:04;10.05;;;6.43;;
55288;SDS011;41154;45.394;5.734;2023-11-19T10:24:32;8.98;;;5.57;;
55288;SDS011;41154;45.394;5.734;2023-11-19T10:27:58;6.30;;;3.97;;
55288;SDS011;41154;45.394;5.734;2023-11-19T10:31:22;9.00;;;5.40;;
55288;SDS011;41154;45.394;5.734;2023-11-19T10:34:46;7.28;;;4.80;;
55288;SDS011;41154;45.394;5.734;2023-11-19T10:38:27;5.00;;;4.10;;
55288;SDS011;41154;45.394;5.734;2023-11-19T10:42:16;7.43;;;4.47;;
55288;SDS011;41154;45.394;5.734;2023-11-19T10:49:05;7.45;;;4.80;;
55288;SDS011;41154;45.394;5.734;2023-11-19T10:52:31;7.75;;;4.57;;
55288;SDS011;41154;45.394;5.734;2023-11-19T10:59:28;8.88;;;4.80;;
55288;SDS011;41154;45.394;5.734;2023-11-19T11:02:56;9.13;;;4.13;;
55288;SDS011;41154;45.394;5.734;2023-11-19T11:06:24;8.32;;;4.18;;
55288;SDS011;41154;45.394;5.734;2023-11-19T11:09:51;5.80;;;3.55;;
55288;SDS011;41154;45.394;5.734;2023-11-19T11:13:23;6.03;;;3.90;;
55288;SDS011;41154;45.394;5.734;2023-11-19T11:16:49;7.78;;;3.58;;
55288;SDS011;41154;45.394;5.734;2023-11-19T11:20:14;5.43;;;3.38;;
55288;SDS011;41154;45.394;5.734;2023-11-19T11:31:39;4.60;;;3.00;;
55288;SDS011;41154;45.394;5.734;2023-11-19T11:39:29;11.63;;;7.80;;
55288;SDS011;41154;45.394;5.734;2023-11-19T11:51:11;4.75;;;3.22;;
55288;SDS011;41154;45.394;5.734;2023-11-19T11:54:39;14.32;;;3.53;;
55288;SDS011;41154;45.394;5.734;2023-11-19T11:58:17;5.18;;;3.05;;
55288;SDS011;41154;45.394;5.734;2023-11-19T12:01:57;3.95;;;2.38;;
55288;SDS011;41154;45.394;5.734;2023-11-19T12:05:24;4.53;;;2.78;;
55288;SDS011;41154;45.394;5.734;2023-11-19T12:08:48;4.20;;;2.65;;
55288;SDS011;41154;45.394;5.734;2023-11-19T12:12:30;3.78;;;2.80;;
55288;SDS011;41154;45.394;5.734;2023-11-19T12:16:09;6.55;;;3.80;;
55288;SDS011;41154;45.394;5.734;2023-11-19T12:19:56;32.60;;;19.38;;
55288;SDS011;41154;45.394;5.734;2023-11-19T12:23:21;4.10;;;2.88;;
55288;SDS011;41154;45.394;5.734;2023-11-19T12:26:46;4.18;;;2.50;;
55288;SDS011;41154;45.394;5.734;2023-11-19T12:30:11;5.38;;;2.92;;
55288;SDS011;41154;45.394;5.734;2023-11-19T12:33:36;3.92;;;2.50;;
55288;SDS011;41154;45.394;5.734;2023-11-19T12:36:37;1.70;;;1.40;;
55288;SDS011;41154;45.394;5.734;2023-11-19T12:43:43;2.38;;;1.38;;
55288;SDS011;41154;45.394;5.734;2023-11-19T12:47:19;2.47;;;1.67;;
55288;SDS011;41154;45.394;5.734;2023-11-19T12:54:16;3.45;;;1.45;;
55288;SDS011;41154;45.394;5.734;2023-11-19T13:01:18;3.47;;;1.77;;
55288;SDS011;41154;45.394;5.734;2023-11-19T13:04:43;2.38;;;1.52;;
55288;SDS011;41154;45.394;5.734;2023-11-19T13:08:07;3.05;;;1.42;;
55288;SDS011;41154;45.394;5.734;2023-11-19T13:15:34;1.60;;;1.08;;
55288;SDS011;41154;45.394;5.734;2023-11-19T13:18:59;2.53;;;1.52;;
55288;SDS011;41154;45.394;5.734;2023-11-19T13:22:23;2.50;;;1.02;;
55288;SDS011;41154;45.394;5.734;2023-11-19T13:25:47;3.17;;;1.10;;
55288;SDS011;41154;45.394;5.734;2023-11-19T13:29:12;2.13;;;0.80;;
55288;SDS011;41154;45.394;5.734;2023-11-19T13:32:37;1.35;;;0.80;;
55288;SDS011;41154;45.394;5.734;2023-11-19T13:36:02;0.93;;;0.60;;
55288;SDS011;41154;45.394;5.734;2023-11-19T13:39:26;2.95;;;0.80;;
55288;SDS011;41154;45.394;5.734;2023-11-19T13:42:50;1.15;;;0.90;;
55288;SDS011;41154;45.394;5.734;2023-11-19T13:46:15;1.13;;;1.02;;
55288;SDS011;41154;45.394;5.734;2023-11-19T13:49:40;2.30;;;1.85;;
55288;SDS011;41154;45.394;5.734;2023-11-19T13:53:04;3.30;;;2.15;;
55288;SDS011;41154;45.394;5.734;2023-11-19T13:56:29;5.65;;;2.30;;
55288;SDS011;41154;45.394;5.734;2023-11-19T13:59:49;6.72;;;2.63;;
55288;SDS011;41154;45.394;5.734;2023-11-19T14:03:14;4.50;;;2.22;;
55288;SDS011;41154;45.394;5.734;2023-11-19T14:06:34;6.22;;;3.10;;
55288;SDS011;41154;45.394;5.734;2023-11-19T14:09:58;7.13;;;3.83;;
55288;SDS011;41154;45.394;5.734;2023-11-19T14:13:23;4.32;;;2.35;;
55288;SDS011;41154;45.394;5.734;2023-11-19T14:17:04;1.88;;;1.30;;
55288;SDS011;41154;45.394;5.734;2023-11-19T14:20:29;4.30;;;1.20;;
55288;SDS011;41154;45.394;5.734;2023-11-19T14:23:53;1.80;;;0.82;;
55288;SDS011;41154;45.394;5.734;2023-11-19T14:27:43;2.13;;;1.20;;
55288;SDS011;41154;45.394;5.734;2023-11-19T14:31:07;2.72;;;1.02;;
55288;SDS011;41154;45.394;5.734;2023-11-19T14:34:32;2.10;;;1.30;;
55288;SDS011;41154;45.394;5.734;2023-11-19T14:38:37;1.90;;;1.00;;
55288;SDS011;41154;45.394;5.734;2023-11-19T14:42:01;3.38;;;1.00;;
55288;SDS011;41154;45.394;5.734;2023-11-19T14:45:26;1.45;;;0.80;;
55288;SDS011;41154;45.394;5.734;2023-11-19T14:48:50;1.92;;;0.75;;
55288;SDS011;41154;45.394;5.734;2023-11-19T14:52:14;0.95;;;0.77;;
55288;SDS011;41154;45.394;5.734;2023-11-19T14:55:38;4.28;;;1.75;;
55288;SDS011;41154;45.394;5.734;2023-11-19T14:59:04;3.60;;;2.28;;
55288;SDS011;41154;45.394;5.734;2023-11-19T15:02:38;5.55;;;3.95;;
55288;SDS011;41154;45.394;5.734;2023-11-19T15:06:02;4.43;;;2.85;;
55288;SDS011;41154;45.394;5.734;2023-11-19T15:09:28;1.77;;;1.27;;
55288;SDS011;41154;45.394;5.734;2023-11-19T15:12:52;2.67;;;1.20;;
55288;SDS011;41154;45.394;5.734;2023-11-19T15:16:16;1.65;;;0.88;;
55288;SDS011;41154;45.394;5.734;2023-11-19T15:19:41;2.20;;;1.75;;
55288;SDS011;41154;45.394;5.734;2023-11-19T15:23:06;4.82;;;1.42;;
55288;SDS011;41154;45.394;5.734;2023-11-19T15:26:35;4.27;;;1.83;;
55288;SDS011;41154;45.394;5.734;2023-11-19T15:30:00;2.47;;;1.60;;
55288;SDS011;41154;45.394;5.734;2023-11-19T15:33:24;2.88;;;1.77;;
55288;SDS011;41154;45.394;5.734;2023-11-19T15:36:48;2.55;;;1.55;;
55288;SDS011;41154;45.394;5.734;2023-11-19T15:40:13;3.42;;;1.67;;
55288;SDS011;41154;45.394;5.734;2023-11-19T15:43:37;3.22;;;1.98;;
55288;SDS011;41154;45.394;5.734;2023-11-19T15:47:02;5.00;;;2.53;;
55288;SDS011;41154;45.394;5.734;2023-11-19T15:50:27;3.88;;;2.38;;
55288;SDS011;41154;45.394;5.734;2023-11-19T15:53:52;5.78;;;2.38;;
55288;SDS011;41154;45.394;5.734;2023-11-19T15:57:17;3.15;;;2.60;;
55288;SDS011;41154;45.394;5.734;2023-11-19T16:00:42;3.17;;;2.40;;
55288;SDS011;41154;45.394;5.734;2023-11-19T16:04:07;6.45;;;2.80;;
55288;SDS011;41154;45.394;5.734;2023-11-19T16:07:34;6.65;;;3.50;;
55288;SDS011;41154;45.394;5.734;2023-11-19T16:10:58;6.95;;;3.28;;
55288;SDS011;41154;45.394;5.734;2023-11-19T16:14:23;5.25;;;3.08;;
55288;SDS011;41154;45.394;5.734;2023-11-19T16:17:47;5.15;;;2.95;;
55288;SDS011;41154;45.394;5.734;2023-11-19T16:21:11;4.68;;;2.92;;
55288;SDS011;41154;45.394;5.734;2023-11-19T16:24:35;4.20;;;2.35;;
55288;SDS011;41154;45.394;5.734;2023-11-19T16:28:02;4.88;;;2.80;;
55288;SDS011;41154;45.394;5.734;2023-11-19T16:30:44;6.38;;;3.03;;
55288;SDS011;41154;45.394;5.734;2023-11-19T16:34:08;7.22;;;4.10;;
55288;SDS011;41154;45.394;5.734;2023-11-19T16:37:35;5.30;;;4.10;;
55288;SDS011;41154;45.394;5.734;2023-11-19T16:41:00;7.68;;;5.13;;
55288;SDS011;41154;45.394;5.734;2023-11-19T16:44:24;7.28;;;4.75;;
55288;SDS011;41154;45.394;5.734;2023-11-19T16:47:49;8.40;;;4.57;;
55288;SDS011;41154;45.394;5.734;2023-11-19T16:51:16;5.18;;;4.00;;
55288;SDS011;41154;45.394;5.734;2023-11-19T16:54:40;5.82;;;3.88;;
55288;SDS011;41154;45.394;5.734;2023-11-19T16:58:04;8.15;;;4.13;;
55288;SDS011;41154;45.394;5.734;2023-11-19T17:01:28;7.00;;;3.80;;
55288;SDS011;41154;45.394;5.734;2023-11-19T17:04:54;7.47;;;4.05;;
55288;SDS011;41154;45.394;5.734;2023-11-19T17:08:18;10.05;;;5.78;;
55288;SDS011;41154;45.394;5.734;2023-11-19T17:11:43;19.80;;;9.82;;
55288;SDS011;41154;45.394;5.734;2023-11-19T17:15:07;17.83;;;10.52;;
55288;SDS011;41154;45.394;5.734;2023-11-19T17:18:33;11.75;;;7.25;;
55288;SDS011;41154;45.394;5.734;2023-11-19T17:21:31;10.00;;;5.47;;
55288;SDS011;41154;45.394;5.734;2023-11-19T17:25:04;6.70;;;3.95;;
55288;SDS011;41154;45.394;5.734;2023-11-19T17:28:30;21.85;;;12.27;;
55288;SDS011;41154;45.394;5.734;2023-11-19T17:31:55;14.55;;;8.70;;
55288;SDS011;41154;45.394;5.734;2023-11-19T17:35:19;12.70;;;8.63;;
55288;SDS011;41154;45.394;5.734;2023-11-19T17:38:43;12.63;;;8.20;;
55288;SDS011;41154;45.394;5.734;2023-11-19T17:42:08;20.70;;;11.85;;
55288;SDS011;41154;45.394;5.734;2023-11-19T17:45:32;14.05;;;8.18;;
55288;SDS011;41154;45.394;5.734;2023-11-19T17:48:56;16.05;;;8.52;;
55288;SDS011;41154;45.394;5.734;2023-11-19T17:52:20;16.08;;;8.07;;
55288;SDS011;41154;45.394;5.734;2023-11-19T17:55:45;14.75;;;6.60;;
55288;SDS011;41154;45.394;5.734;2023-11-19T17:59:09;10.40;;;6.05;;
55288;SDS011;41154;45.394;5.734;2023-11-19T18:02:43;7.72;;;3.88;;
55288;SDS011;41154;45.394;5.734;2023-11-19T18:06:14;20.83;;;12.35;;
55288;SDS011;41154;45.394;5.734;2023-11-19T18:09:38;18.15;;;10.30;;
55288;SDS011;41154;45.394;5.734;2023-11-19T18:13:02;14.73;;;9.60;;
55288;SDS011;41154;45.394;5.734;2023-11-19T18:16:19;15.27;;;10.27;;
55288;SDS011;41154;45.394;5.734;2023-11-19T18:19:43;15.13;;;9.93;;
55288;SDS011;41154;45.394;5.734;2023-11-19T18:23:07;14.98;;;10.07;;
55288;SDS011;41154;45.394;5.734;2023-11-19T18:26:32;11.80;;;8.18;;
55288;SDS011;41154;45.394;5.734;2023-11-19T18:29:57;15.05;;;9.65;;
55288;SDS011;41154;45.394;5.734;2023-11-19T18:33:22;13.07;;;5.93;;
55288;SDS011;41154;45.394;5.734;2023-11-19T18:36:47;11.40;;;6.65;;
55288;SDS011;41154;45.394;5.734;2023-11-19T18:40:11;10.05;;;5.75;;
55288;SDS011;41154;45.394;5.734;2023-11-19T18:43:38;18.45;;;6.20;;
55288;SDS011;41154;45.394;5.734;2023-11-19T18:47:02;15.27;;;10.23;;
55288;SDS011;41154;45.394;5.734;2023-11-19T18:50:26;18.70;;;11.00;;
55288;SDS011;41154;45.394;5.734;2023-11-19T18:53:51;17.65;;;10.65;;
55288;SDS011;41154;45.394;5.734;2023-11-19T18:57:16;20.38;;;11.88;;
55288;SDS011;41154;45.394;5.734;2023-11-19T19:00:41;20.35;;;14.10;;
55288;SDS011;41154;45.394;5.734;2023-11-19T19:04:08;23.80;;;13.35;;
55288;SDS011;41154;45.394;5.734;2023-11-19T19:07:32;20.27;;;11.90;;
55288;SDS011;41154;45.394;5.734;2023-11-19T19:11:00;21.73;;;12.25;;
55288;SDS011;41154;45.394;5.734;2023-11-19T19:14:24;24.35;;;14.25;;
55288;SDS011;41154;45.394;5.734;2023-11-19T19:17:51;26.45;;;13.43;;
55288;SDS011;41154;45.394;5.734;2023-11-19T19:21:16;23.05;;;12.88;;
55288;SDS011;41154;45.394;5.734;2023-11-19T19:24:40;26.92;;;12.98;;
55288;SDS011;41154;45.394;5.734;2023-11-19T19:28:05;20.20;;;13.13;;
55288;SDS011;41154;45.394;5.734;2023-11-19T19:31:29;26.98;;;16.08;;
55288;SDS011;41154;45.394;5.734;2023-11-19T19:34:53;30.00;;;18.15;;
55288;SDS011;41154;45.394;5.734;2023-11-19T19:38:17;31.20;;;19.30;;
55288;SDS011;41154;45.394;5.734;2023-11-19T19:41:42;36.28;;;22.42;;
55288;SDS011;41154;45.394;5.734;2023-11-19T19:45:09;33.90;;;20.52;;
55288;SDS011;41154;45.394;5.734;2023-11-19T19:48:36;35.83;;;20.58;;
55288;SDS011;41154;45.394;5.734;2023-11-19T19:52:00;36.45;;;23.30;;
55288;SDS011;41154;45.394;5.734;2023-11-19T19:55:25;37.25;;;22.02;;
55288;SDS011;41154;45.394;5.734;2023-11-19T19:58:49;37.05;;;19.48;;
55288;SDS011;41154;45.394;5.734;2023-11-19T20:02:15;28.80;;;16.85;;
55288;SDS011;41154;45.394;5.734;2023-11-19T20:05:39;30.35;;;18.77;;
55288;SDS011;41154;45.394;5.734;2023-11-19T20:09:04;35.88;;;22.15;;
55288;SDS011;41154;45.394;5.734;2023-11-19T20:12:29;43.28;;;24.75;;
55288;SDS011;41154;45.394;5.734;2023-11-19T20:15:54;38.00;;;24.65;;
55288;SDS011;41154;45.394;5.734;2023-11-19T20:19:18;42.80;;;27.38;;
55288;SDS011;41154;45.394;5.734;2023-11-19T20:22:43;45.17;;;27.50;;
55288;SDS011;41154;45.394;5.734;2023-11-19T20:26:08;32.38;;;18.02;;
55288;SDS011;41154;45.394;5.734;2023-11-19T20:29:34;32.92;;;16.15;;
55288;SDS011;41154;45.394;5.734;2023-11-19T20:32:58;30.20;;;17.08;;
55288;SDS011;41154;45.394;5.734;2023-11-19T20:36:23;38.83;;;17.92;;
55288;SDS011;41154;45.394;5.734;2023-11-19T20:39:47;31.80;;;16.67;;
55288;SDS011;41154;45.394;5.734;2023-11-19T20:43:11;34.47;;;17.98;;
55288;SDS011;41154;45.394;5.734;2023-11-19T20:46:35;34.97;;;16.85;;
55288;SDS011;41154;45.394;5.734;2023-11-19T20:50:00;35.60;;;18.35;;
55288;SDS011;41154;45.394;5.734;2023-11-19T20:52:50;37.55;;;17.55;;
55288;SDS011;41154;45.394;5.734;2023-11-19T20:55:51;45.65;;;19.67;;